Time;durP1;ratioP1;P1;durP2;ratioP2;P2;SDS_P1;SDS_P2;PMS_P1;PMS_P2;Temp;Humidity;BMP_temperature;BMP_pressure;BME280_temperature;BME280_humidity;BME280_pressure;Samples;Min_cycle;Max_cycle;Signal;HPM_P1;HPM_P2
2019/08/24 00:00:44;;;;;;;12.7;11.5;;;;;;;19.68;81.61426;965.6627;;;;
2019/08/24 00:03:09;;;;;;;13.7;12.3;;;;;;;19.53;83.38379;965.6387;;;;
2019/08/24 00:05:34;;;;;;;12.6;11.4;;;;;;;19.61;82.35352;965.6506;;;;
2019/08/24 00:08:02;;;;;;;12.3;11.2;;;;;;;19.54;82.59863;965.6222;;;;
2019/08/24 00:10:27;;;;;;;12.7;11.5;;;;;;;19.55;82.87207;965.622;;;;
2019/08/24 00:12:52;;;;;;;12.8;11.2;;;;;;;19.52;82.45605;965.6594;;;;
2019/08/24 00:15:18;;;;;;;12.3;11.2;;;;;;;19.56;82.2627;965.6375;;;;
2019/08/24 00:17:43;;;;;;;13.3;12.1;;;;;;;19.6;81.70605;965.5969;;;;
2019/08/24 00:20:08;;;;;;;12.9;11.6;;;;;;;19.5;82.00488;965.5759;;;;
2019/08/24 00:22:33;;;;;;;12.1;10.9;;;;;;;19.66;81.39844;965.5687;;;;
2019/08/24 00:24:58;;;;;;;12.7;11.5;;;;;;;19.59;81.63477;965.5854;;;;
2019/08/24 00:27:23;;;;;;;13.1;11.8;;;;;;;19.46;82.37402;965.5745;;;;
2019/08/24 00:29:48;;;;;;;12.1;11;;;;;;;19.51;82.74609;965.5569;;;;
2019/08/24 00:32:13;;;;;;;13.7;12.3;;;;;;;19.39;82.79492;965.5585;;;;
2019/08/24 00:34:38;;;;;;;13.3;12;;;;;;;19.41;82.92773;965.5887;;;;
2019/08/24 00:37:03;;;;;;;13.8;12.5;;;;;;;19.4;82.85547;965.5253;;;;
2019/08/24 00:39:28;;;;;;;12.9;11.6;;;;;;;19.39;83.20605;965.5005;;;;
2019/08/24 00:41:54;;;;;;;12.7;11.4;;;;;;;19.41;83.32715;965.4465;;;;
2019/08/24 00:44:19;;;;;;;14.2;12.7;;;;;;;19.29;84.16016;965.4878;;;;
2019/08/24 00:46:44;;;;;;;15.6;13.5;;;;;;;19.19;84.61133;965.4843;;;;
2019/08/24 00:49:12;;;;;;;13.6;12.3;;;;;;;19.32;84.35352;965.5058;;;;
2019/08/24 00:51:37;;;;;;;13.5;12.2;;;;;;;19.41;84.08887;965.5136;;;;
2019/08/24 00:54:02;;;;;;;13.1;11.9;;;;;;;19.34;84.76953;965.4711;;;;
2019/08/24 00:56:28;;;;;;;14.4;12.8;;;;;;;19.41;84.125;965.4309;;;;
2019/08/24 00:58:55;;;;;;;14.2;12.8;;;;;;;19.43;84.30469;965.3772;;;;
2019/08/24 01:01:25;;;;;;;13.3;12.2;;;;;;;19.41;84.85352;965.3862;;;;
2019/08/24 01:03:52;;;;;;;15.4;12.9;;;;;;;19.38;84.57813;965.3767;;;;
2019/08/24 01:06:21;;;;;;;15.1;12.4;;;;;;;19.35;83.96289;965.3521;;;;
2019/08/24 01:08:46;;;;;;;14.4;13;;;;;;;19.24;84.0459;965.337;;;;
2019/08/24 01:11:17;;;;;;;14.5;13;;;;;;;19.21;83.65332;965.3463;;;;
2019/08/24 01:13:42;;;;;;;14.4;12.9;;;;;;;19.15;83.63184;965.3134;;;;
2019/08/24 01:16:07;;;;;;;13.5;12.1;;;;;;;19.22;83.56152;965.3171;;;;
2019/08/24 01:18:32;;;;;;;14.1;12.8;;;;;;;19.23;83.68164;965.2875;;;;
2019/08/24 01:20:57;;;;;;;13.2;11.9;;;;;;;19.24;82.83691;965.2626;;;;
2019/08/24 01:23:22;;;;;;;14.4;12.9;;;;;;;19.18;83.61328;965.3059;;;;
2019/08/24 01:25:47;;;;;;;14.2;12.5;;;;;;;19.13;84.04883;965.2466;;;;
2019/08/24 01:28:13;;;;;;;14;12.7;;;;;;;19.1;83.61914;965.2394;;;;
2019/08/24 01:30:38;;;;;;;14.8;13.3;;;;;;;19.06;83.78711;965.2231;;;;
2019/08/24 01:33:03;;;;;;;14.5;13.1;;;;;;;18.97;84.75781;965.2475;;;;
2019/08/24 01:35:28;;;;;;;14.9;13.3;;;;;;;18.97;84.25293;965.1714;;;;
2019/08/24 01:37:53;;;;;;;13.6;12.3;;;;;;;18.92;85.11035;965.1667;;;;
2019/08/24 01:40:18;;;;;;;14.7;13.1;;;;;;;18.92;84.75879;965.1469;;;;
2019/08/24 01:42:43;;;;;;;13.6;12.4;;;;;;;18.93;84.31641;965.0982;;;;
2019/08/24 01:45:08;;;;;;;13.6;12.3;;;;;;;18.95;84.20117;965.0765;;;;
2019/08/24 01:47:33;;;;;;;13.1;11.9;;;;;;;18.92;84.16016;965.0179;;;;
2019/08/24 01:49:58;;;;;;;14.8;12.8;;;;;;;18.91;84.25293;965.0719;;;;
2019/08/24 01:52:24;;;;;;;13.6;12.1;;;;;;;18.87;84.63086;965.0273;;;;
2019/08/24 01:54:49;;;;;;;13.5;12.2;;;;;;;18.73;85.50684;965.0377;;;;
2019/08/24 01:57:14;;;;;;;13.9;12.4;;;;;;;18.69;85.67676;965.0103;;;;
2019/08/24 01:59:39;;;;;;;12.6;11.3;;;;;;;18.75;85.01953;965.0236;;;;
2019/08/24 02:02:04;;;;;;;12.9;11.7;;;;;;;18.76;84.9502;964.999;;;;
2019/08/24 02:04:29;;;;;;;13.2;11.9;;;;;;;18.63;85.8877;964.9684;;;;
2019/08/24 02:06:54;;;;;;;12.4;11.2;;;;;;;18.68;85.07715;964.9699;;;;
2019/08/24 02:09:19;;;;;;;11.9;10.8;;;;;;;18.69;85.1377;964.9261;;;;
2019/08/24 02:11:46;;;;;;;13;11.7;;;;;;;18.64;85.18652;964.9587;;;;
2019/08/24 02:14:11;;;;;;;12.2;11.1;;;;;;;18.63;85.27637;964.9545;;;;
2019/08/24 02:16:42;;;;;;;12.4;11.1;;;;;;;18.58;85.28125;964.9556;;;;
2019/08/24 02:19:11;;;;;;;12.2;11.1;;;;;;;18.56;85.53418;964.9529;;;;
2019/08/24 02:21:37;;;;;;;13.1;11.7;;;;;;;18.58;85.53711;964.9308;;;;
2019/08/24 02:24:06;;;;;;;13;11.8;;;;;;;18.46;86.30957;964.947;;;;
2019/08/24 02:26:31;;;;;;;12.3;11.1;;;;;;;18.38;85.88574;964.9661;;;;
2019/08/24 02:28:56;;;;;;;12.5;11.3;;;;;;;18.42;85.92773;965.0137;;;;
2019/08/24 02:31:29;;;;;;;12.4;11.3;;;;;;;18.43;85.08594;965.0353;;;;
2019/08/24 02:33:57;;;;;;;13;11.6;;;;;;;18.39;85.49902;965.0625;;;;
2019/08/24 02:36:19;;;;;;;12.9;11.6;;;;;;;18.33;85.42969;965.0206;;;;
2019/08/24 02:38:48;;;;;;;12.5;11.2;;;;;;;18.21;85.61621;965.0349;;;;
2019/08/24 02:41:13;;;;;;;12.3;11.1;;;;;;;18.29;85.64551;965.0223;;;;
2019/08/24 02:43:43;;;;;;;12.7;11.5;;;;;;;18.2;85.5459;965.0109;;;;
2019/08/24 02:46:08;;;;;;;12.1;11;;;;;;;18.28;85.39746;965.0101;;;;
2019/08/24 02:48:33;;;;;;;11.9;10.6;;;;;;;18.2;85.4043;964.9954;;;;
2019/08/24 02:51:03;;;;;;;12.7;11.4;;;;;;;18.11;86.56152;964.9756;;;;
2019/08/24 02:53:32;;;;;;;12;10.8;;;;;;;18.24;85.61328;964.9348;;;;
2019/08/24 02:55:58;;;;;;;12.6;11.3;;;;;;;18.15;85.62988;964.9088;;;;
2019/08/24 02:58:23;;;;;;;12.2;11.1;;;;;;;18.26;85.00586;964.8855;;;;
2019/08/24 03:00:49;;;;;;;11.7;10.6;;;;;;;18.16;85.73828;964.8792;;;;
2019/08/24 03:03:14;;;;;;;12.9;11.7;;;;;;;18.14;85.72168;964.8857;;;;
2019/08/24 03:05:39;;;;;;;12.6;11.3;;;;;;;18.05;86.55859;964.8842;;;;
2019/08/24 03:08:04;;;;;;;12.4;11.2;;;;;;;18.06;85.98633;964.9163;;;;
2019/08/24 03:10:29;;;;;;;13;11.8;;;;;;;18.01;86.59863;964.9058;;;;
2019/08/24 03:12:54;;;;;;;13.1;11.9;;;;;;;17.96;87.25488;964.9033;;;;
2019/08/24 03:15:20;;;;;;;12.8;11.6;;;;;;;18.01;86.39941;964.8661;;;;
2019/08/24 03:17:45;;;;;;;12.1;11;;;;;;;18.01;86.58691;964.9141;;;;
2019/08/24 03:20:10;;;;;;;12.9;11.7;;;;;;;18.02;86.20215;964.9304;;;;
2019/08/24 03:22:38;;;;;;;12.1;11;;;;;;;18.03;85.69043;964.9039;;;;
2019/08/24 03:25:04;;;;;;;12.5;11.4;;;;;;;17.93;86.76953;964.9306;;;;
2019/08/24 03:27:29;;;;;;;13.3;12;;;;;;;17.85;88.1582;964.9108;;;;
2019/08/24 03:29:54;;;;;;;12.8;11.6;;;;;;;17.8;87.78516;964.9511;;;;
2019/08/24 03:32:19;;;;;;;13.3;12;;;;;;;17.78;88.07422;964.9125;;;;
2019/08/24 03:34:44;;;;;;;15.1;12.4;;;;;;;17.77;87.62695;964.9256;;;;
2019/08/24 03:37:09;;;;;;;13.2;11.9;;;;;;;17.88;87.57813;964.8801;;;;
2019/08/24 03:39:38;;;;;;;12.5;11.3;;;;;;;17.84;86.38965;964.8845;;;;
2019/08/24 03:42:03;;;;;;;12.6;11.4;;;;;;;17.93;86.10059;964.8276;;;;
2019/08/24 03:44:28;;;;;;;12.1;10.8;;;;;;;17.89;86.51563;964.8397;;;;
2019/08/24 03:46:55;;;;;;;12.6;11.4;;;;;;;17.86;86.46094;964.8326;;;;
2019/08/24 03:49:20;;;;;;;12.7;11.5;;;;;;;17.85;86.54297;964.8621;;;;
2019/08/24 03:51:45;;;;;;;12.6;11.4;;;;;;;17.71;87.88379;964.9417;;;;
2019/08/24 03:54:10;;;;;;;12.5;11.3;;;;;;;17.75;87.0625;964.8974;;;;
2019/08/24 03:56:35;;;;;;;12.2;11;;;;;;;17.71;87.3457;964.9107;;;;
2019/08/24 03:59:00;;;;;;;12.2;11.1;;;;;;;17.73;87.17383;964.9221;;;;
2019/08/24 04:02:27;;;;;;;12.1;11;;;;;;;17.73;88.02832;964.847;;;;
2019/08/24 04:04:52;;;;;;;11.9;10.8;;;;;;;17.74;87.31738;964.8868;;;;
2019/08/24 04:07:17;;;;;;;13.5;12.2;;;;;;;17.65;87.90625;964.8857;;;;
2019/08/24 04:09:42;;;;;;;12.5;11.1;;;;;;;17.65;88.28223;964.8851;;;;
2019/08/24 04:12:07;;;;;;;12.2;10.9;;;;;;;17.69;87.75195;964.8983;;;;
2019/08/24 04:14:32;;;;;;;12.2;11;;;;;;;17.6;88.26953;964.9048;;;;
2019/08/24 04:17:00;;;;;;;12.3;11.2;;;;;;;17.66;87.83789;964.8909;;;;
2019/08/24 04:19:25;;;;;;;13.1;11.8;;;;;;;17.58;88.7832;964.8989;;;;
2019/08/24 04:21:50;;;;;;;13.3;12;;;;;;;;;;;;;
2019/08/24 04:24:15;;;;;;;13.9;12;;;;;;;;;;;;;
2019/08/24 04:26:40;;;;;;;12.8;11.6;;;;;;;;;;;;;
2019/08/24 04:29:07;;;;;;;12.8;11.6;;;;;;;;;;;;;
2019/08/24 04:31:32;;;;;;;13.1;11.8;;;;;;;;;;;;;
2019/08/24 04:33:59;;;;;;;13.2;11.9;;;;;;;;;;;;;
2019/08/24 04:36:24;;;;;;;13.9;12.7;;;;;;;;;;;;;
2019/08/24 04:38:49;;;;;;;14.4;12.9;;;;;;;;;;;;;
2019/08/24 04:41:14;;;;;;;13.5;12.2;;;;;;;;;;;;;
2019/08/24 04:43:40;;;;;;;13.3;12;;;;;;;;;;;;;
2019/08/24 04:46:05;;;;;;;13.5;12.1;;;;;;;;;;;;;
2019/08/24 04:48:31;;;;;;;14.3;12.9;;;;;;;;;;;;;
2019/08/24 04:50:56;;;;;;;13;11.7;;;;;;;;;;;;;
2019/08/24 04:53:21;;;;;;;13.5;12.2;;;;;;;;;;;;;
2019/08/24 04:55:46;;;;;;;13.8;12.5;;;;;;;;;;;;;
2019/08/24 04:58:11;;;;;;;14.1;12.7;;;;;;;;;;;;;
2019/08/24 05:00:36;;;;;;;13.3;12;;;;;;;;;;;;;
2019/08/24 05:03:49;;;;;;;14.7;13.2;;;;;;;17.26;88.98633;964.8585;;;;
2019/08/24 05:06:14;;;;;;;13.5;12.1;;;;;;;;;;;;;
2019/08/24 05:08:40;;;;;;;12.9;11.7;;;;;;;;;;;;;
2019/08/24 05:11:05;;;;;;;13.5;12.3;;;;;;;;;;;;;
2019/08/24 05:13:31;;;;;;;13.3;11.9;;;;;;;;;;;;;
2019/08/24 05:15:56;;;;;;;13.5;12.1;;;;;;;;;;;;;
2019/08/24 05:18:22;;;;;;;13.4;11.9;;;;;;;;;;;;;
2019/08/24 05:20:47;;;;;;;13.3;11.9;;;;;;;;;;;;;
2019/08/24 05:23:15;;;;;;;13.3;11.9;;;;;;;;;;;;;
2019/08/24 05:25:40;;;;;;;13.4;12;;;;;;;;;;;;;
2019/08/24 05:28:05;;;;;;;13.8;12.4;;;;;;;;;;;;;
2019/08/24 05:30:30;;;;;;;13.1;11.8;;;;;;;;;;;;;
2019/08/24 05:32:56;;;;;;;13.9;12.5;;;;;;;;;;;;;
2019/08/24 05:35:21;;;;;;;13.7;12.3;;;;;;;;;;;;;
2019/08/24 05:37:46;;;;;;;13.4;12;;;;;;;;;;;;;
2019/08/24 05:40:11;;;;;;;13.8;12;;;;;;;;;;;;;
2019/08/24 05:42:36;;;;;;;13.3;11.9;;;;;;;;;;;;;
2019/08/24 05:45:01;;;;;;;13.4;12;;;;;;;;;;;;;
2019/08/24 05:47:26;;;;;;;14;12.3;;;;;;;;;;;;;
2019/08/24 05:49:52;;;;;;;13.5;12.1;;;;;;;;;;;;;
2019/08/24 05:52:17;;;;;;;13;11.7;;;;;;;;;;;;;
2019/08/24 05:54:42;;;;;;;13.1;11.7;;;;;;;;;;;;;
2019/08/24 05:57:07;;;;;;;14.2;11.8;;;;;;;;;;;;;
2019/08/24 05:59:32;;;;;;;12.7;11.5;;;;;;;;;;;;;
2019/08/24 06:01:58;;;;;;;12.6;11.3;;;;;;;;;;;;;
2019/08/24 06:04:23;;;;;;;12.6;11.4;;;;;;;;;;;;;
2019/08/24 06:06:49;;;;;;;13.8;12.3;;;;;;;;;;;;;
2019/08/24 06:09:14;;;;;;;13.7;12.3;;;;;;;;;;;;;
2019/08/24 06:11:39;;;;;;;13.1;11.7;;;;;;;;;;;;;
2019/08/24 06:14:05;;;;;;;13.1;11.8;;;;;;;;;;;;;
2019/08/24 06:16:30;;;;;;;12.9;11.5;;;;;;;;;;;;;
2019/08/24 06:18:55;;;;;;;13.2;11.9;;;;;;;;;;;;;
2019/08/24 06:21:20;;;;;;;12.5;11.3;;;;;;;;;;;;;
2019/08/24 06:23:46;;;;;;;13.6;12.2;;;;;;;;;;;;;
2019/08/24 06:26:11;;;;;;;13.7;12.3;;;;;;;;;;;;;
2019/08/24 06:28:37;;;;;;;14;12.6;;;;;;;;;;;;;
2019/08/24 06:31:02;;;;;;;13.9;12.5;;;;;;;;;;;;;
2019/08/24 06:33:27;;;;;;;14.2;12.8;;;;;;;;;;;;;
2019/08/24 06:35:52;;;;;;;13.7;12.2;;;;;;;;;;;;;
2019/08/24 06:40:20;;;;;;;12.8;11.6;;;;;;;18.57;84.23438;965.0958;;;;
2019/08/24 06:42:45;;;;;;;13.3;11.9;;;;;;;18.63;83.74219;965.1286;;;;
2019/08/24 06:45:26;;;;;;;12.7;11.4;;;;;;;18.55;84.29102;965.0803;;;;
2019/08/24 06:47:58;;;;;;;12.4;11.1;;;;;;;18.77;82.90039;965.1121;;;;
2019/08/24 06:50:23;;;;;;;13;11.7;;;;;;;18.84;82.5752;965.0505;;;;
2019/08/24 06:52:49;;;;;;;14.7;13.2;;;;;;;18.62;83.74023;964.9958;;;;
2019/08/24 06:55:14;;;;;;;13.6;12.3;;;;;;;18.6;84.13379;965.0123;;;;
2019/08/24 06:59:33;;;;;;;12;10.7;;;;;;;18.95;82.5127;965.0385;;;;
2019/08/24 07:01:58;;;;;;;14.2;11.7;;;;;;;18.92;82.00391;965.0906;;;;
2019/08/24 07:04:23;;;;;;;12.8;11.6;;;;;;;18.77;83.38281;965.012;;;;
2019/08/24 07:06:49;;;;;;;13.7;11.8;;;;;;;18.84;83.19629;964.9744;;;;
2019/08/24 07:09:14;;;;;;;12.2;11;;;;;;;18.97;82.52832;965.0278;;;;
2019/08/24 07:11:39;;;;;;;12.4;11.2;;;;;;;18.97;81.96289;965.0137;;;;
2019/08/24 07:14:04;;;;;;;12.1;11;;;;;;;19.03;82.77246;964.9556;;;;
2019/08/24 07:16:30;;;;;;;11.5;10.3;;;;;;;19.22;81.83594;964.9733;;;;
2019/08/24 07:18:55;;;;;;;11.6;10.5;;;;;;;19.32;81.11426;964.9601;;;;
2019/08/24 07:21:20;;;;;;;12.5;11.2;;;;;;;19.29;81.0957;964.9588;;;;
2019/08/24 07:23:45;;;;;;;12;10.8;;;;;;;19.25;81.33594;964.9708;;;;
2019/08/24 07:26:10;;;;;;;11.8;10.4;;;;;;;19.38;81.27637;964.9376;;;;
2019/08/24 07:28:35;;;;;;;12;10.8;;;;;;;19.47;79.66016;964.9263;;;;
2019/08/24 07:31:03;;;;;;;12.2;10.9;;;;;;;19.52;79.53027;964.9235;;;;
2019/08/24 07:33:29;;;;;;;13.1;10.7;;;;;;;19.51;81.47754;964.9194;;;;
2019/08/24 07:35:57;;;;;;;11.3;10.2;;;;;;;19.63;79.46582;964.9111;;;;
2019/08/24 07:38:22;;;;;;;11.9;10.1;;;;;;;19.63;79.97168;964.9302;;;;
2019/08/24 07:40:47;;;;;;;11.8;10.2;;;;;;;19.74;79.89648;964.8798;;;;
2019/08/24 07:43:12;;;;;;;11.2;10.1;;;;;;;19.76;80.72461;964.8962;;;;
2019/08/24 07:45:39;;;;;;;12.4;10.7;;;;;;;19.8;79.78027;964.8552;;;;
2019/08/24 07:48:04;;;;;;;11.7;10.5;;;;;;;19.77;79.87793;964.8697;;;;
2019/08/24 07:50:29;;;;;;;11.9;10.7;;;;;;;19.87;79.56836;964.9243;;;;
2019/08/24 07:52:58;;;;;;;12;10.8;;;;;;;19.86;80.19043;964.9399;;;;
2019/08/24 07:55:23;;;;;;;12.4;11;;;;;;;19.78;80.4707;964.9077;;;;
2019/08/24 07:57:54;;;;;;;13;10.9;;;;;;;19.88;79.62891;964.9102;;;;
2019/08/24 08:00:23;;;;;;;11.2;10.1;;;;;;;20.02;79.33691;964.9718;;;;
2019/08/24 08:02:48;;;;;;;12;10.8;;;;;;;20.09;79.52539;964.9496;;;;
2019/08/24 08:05:13;;;;;;;12.4;11.1;;;;;;;20.18;79.31738;965.0157;;;;
2019/08/24 08:07:40;;;;;;;15.1;12.1;;;;;;;20.25;78.74219;964.9984;;;;
2019/08/24 08:10:11;;;;;;;12.5;11.3;;;;;;;20.32;79.73145;965.0327;;;;
2019/08/24 08:12:36;;;;;;;11.7;10.5;;;;;;;20.31;80.67188;965.0267;;;;
2019/08/24 08:15:02;;;;;;;13.7;12.4;;;;;;;20.34;78.92285;965.0761;;;;
2019/08/24 08:17:31;;;;;;;13.7;12.3;;;;;;;20.36;77.97461;965.0744;;;;
2019/08/24 08:19:58;;;;;;;13.8;12.4;;;;;;;20.41;77.6543;965.0366;;;;
2019/08/24 08:22:31;;;;;;;12.6;11.4;;;;;;;20.5;77.90527;965.0555;;;;
2019/08/24 08:24:49;;;;;;;13;11.7;;;;;;;20.56;77.05566;965.0478;;;;
2019/08/24 08:27:15;;;;;;;14.8;13.3;;;;;;;20.38;77.59082;965.0667;;;;
2019/08/24 08:29:45;;;;;;;13.8;12.4;;;;;;;20.51;76.91797;965.0394;;;;
2019/08/24 08:32:10;;;;;;;14.1;12.1;;;;;;;20.57;76.69141;964.9747;;;;
2019/08/24 08:34:35;;;;;;;13.3;12.1;;;;;;;20.6;77.75781;965.0081;;;;
2019/08/24 08:37:00;;;;;;;13.3;11.9;;;;;;;20.65;78.99023;964.9805;;;;
2019/08/24 08:39:27;;;;;;;12.8;11.4;;;;;;;20.81;77.40723;964.9692;;;;
2019/08/24 08:41:53;;;;;;;13.2;11.8;;;;;;;20.86;77.625;964.905;;;;
2019/08/24 08:44:27;;;;;;;13.1;11.7;;;;;;;20.95;76.55859;964.9278;;;;
2019/08/24 08:46:53;;;;;;;14.1;12.3;;;;;;;21;75.74219;964.957;;;;
2019/08/24 08:49:18;;;;;;;13.7;12.3;;;;;;;21.02;76.5459;964.9211;;;;
2019/08/24 08:51:43;;;;;;;14.1;12.7;;;;;;;21.12;75.85547;964.913;;;;
2019/08/24 08:54:09;;;;;;;14.8;13.2;;;;;;;21.05;75.71289;964.9323;;;;
2019/08/24 08:56:34;;;;;;;14.3;12.8;;;;;;;21.06;76.17578;964.9547;;;;
2019/08/24 08:58:59;;;;;;;14.8;13.3;;;;;;;21.1;75.97168;964.8744;;;;
2019/08/24 09:01:24;;;;;;;13.8;12.4;;;;;;;21.19;77.50781;964.9379;;;;
2019/08/24 09:03:49;;;;;;;14.1;12.7;;;;;;;21.31;76.47852;964.9702;;;;
2019/08/24 09:06:14;;;;;;;14.7;13.2;;;;;;;21.26;76.24512;964.9111;;;;
2019/08/24 09:08:39;;;;;;;12.6;11.5;;;;;;;21.44;75.52246;964.9203;;;;
2019/08/24 09:11:07;;;;;;;15.3;13.8;;;;;;;21.25;75.27637;964.8733;;;;
2019/08/24 09:13:32;;;;;;;15.7;14;;;;;;;21.19;75.16113;964.9155;;;;
2019/08/24 09:15:57;;;;;;;15;13.4;;;;;;;21.16;76.74902;964.8901;;;;
2019/08/24 09:18:22;;;;;;;14.5;13.1;;;;;;;21.13;77.16699;964.8558;;;;
2019/08/24 09:20:47;;;;;;;13.5;12.1;;;;;;;21.22;77.01758;964.8728;;;;
2019/08/24 09:23:12;;;;;;;14.8;13.3;;;;;;;21.24;77.31641;964.9116;;;;
2019/08/24 09:25:38;;;;;;;13.5;12.1;;;;;;;21.37;76.41895;964.85;;;;
2019/08/24 09:28:03;;;;;;;15.1;13.6;;;;;;;21.44;75.88867;964.8706;;;;
2019/08/24 09:30:28;;;;;;;15.2;13.8;;;;;;;21.5;74.48145;964.8606;;;;
2019/08/24 09:32:53;;;;;;;15.8;14.2;;;;;;;21.79;73.62012;964.8546;;;;
2019/08/24 09:35:22;;;;;;;15.5;14;;;;;;;21.69;73.95801;964.8155;;;;
2019/08/24 09:37:47;;;;;;;14;12.6;;;;;;;21.69;74.72559;964.8153;;;;
2019/08/24 09:40:12;;;;;;;16.3;13.4;;;;;;;21.76;73.75781;964.8309;;;;
2019/08/24 09:42:37;;;;;;;13.9;12.5;;;;;;;21.74;74.29785;964.8035;;;;
2019/08/24 09:45:02;;;;;;;13.3;12;;;;;;;21.87;74.12988;964.7876;;;;
2019/08/24 09:47:27;;;;;;;14;12.5;;;;;;;21.94;74.53125;964.7905;;;;
2019/08/24 09:49:52;;;;;;;13.7;12.3;;;;;;;22.15;74.24902;964.7427;;;;
2019/08/24 09:52:18;;;;;;;15.5;12;;;;;;;22.37;73.3623;964.7689;;;;
2019/08/24 09:54:43;;;;;;;13.8;12.4;;;;;;;22.37;72.38086;964.7555;;;;
2019/08/24 09:57:08;;;;;;;12.6;11.3;;;;;;;22.4;73.15527;964.7548;;;;
2019/08/24 09:59:33;;;;;;;13.5;12.2;;;;;;;22.54;74.34961;964.787;;;;
2019/08/24 10:01:58;;;;;;;15.9;14.3;;;;;;;22.41;72.61328;964.7374;;;;
2019/08/24 10:04:23;;;;;;;13.3;12;;;;;;;22.58;73.08887;964.7689;;;;
2019/08/24 10:06:48;;;;;;;14.6;13.2;;;;;;;22.53;72.89355;964.8106;;;;
2019/08/24 10:09:13;;;;;;;14.7;12.8;;;;;;;22.49;72.33008;964.8045;;;;
2019/08/24 10:11:38;;;;;;;14.1;12.6;;;;;;;22.54;72.78906;964.778;;;;
2019/08/24 10:14:03;;;;;;;15.4;13.9;;;;;;;22.81;71.79004;964.8027;;;;
2019/08/24 10:16:28;;;;;;;15.1;13.6;;;;;;;22.75;71.46191;964.7938;;;;
2019/08/24 10:18:54;;;;;;;16;13.5;;;;;;;22.62;72.12793;964.7391;;;;
2019/08/24 10:21:19;;;;;;;15.2;13.6;;;;;;;22.56;71.3252;964.7402;;;;
2019/08/24 10:23:44;;;;;;;14.9;13.3;;;;;;;22.65;71.99023;964.7269;;;;
2019/08/24 10:26:09;;;;;;;15.3;13.3;;;;;;;22.9;72.43262;964.6974;;;;
2019/08/24 10:28:34;;;;;;;15.1;13.6;;;;;;;23.06;69.71094;964.731;;;;
2019/08/24 10:30:59;;;;;;;14.2;12.7;;;;;;;23;71.57129;964.7107;;;;
2019/08/24 10:33:24;;;;;;;14;12.5;;;;;;;23.28;69.4248;964.7173;;;;
2019/08/24 10:35:49;;;;;;;14.7;13.3;;;;;;;23.49;66.89746;964.7258;;;;
2019/08/24 10:38:14;;;;;;;13;11.8;;;;;;;23.59;68.33496;964.7299;;;;
2019/08/24 10:40:39;;;;;;;14.1;11.8;;;;;;;23.59;68.41992;964.7837;;;;
2019/08/24 10:43:04;;;;;;;15.5;14;;;;;;;23.6;67.91016;964.7561;;;;
2019/08/24 10:45:29;;;;;;;14.6;13.1;;;;;;;23.66;66.58105;964.7265;;;;
2019/08/24 10:47:54;;;;;;;18.6;16.8;;;;;;;23.67;67.11426;964.692;;;;
2019/08/24 10:50:20;;;;;;;13.8;12.4;;;;;;;23.85;71.16309;964.6498;;;;
2019/08/24 10:52:45;;;;;;;14.4;12.1;;;;;;;23.87;68.64063;964.6093;;;;
2019/08/24 10:55:10;;;;;;;12.3;11.1;;;;;;;24.17;67.60449;964.5906;;;;
2019/08/24 10:57:35;;;;;;;15.3;11.9;;;;;;;24.18;67.8916;964.5457;;;;
2019/08/24 11:00:00;;;;;;;13.2;11.9;;;;;;;24.09;67.50977;964.5705;;;;
2019/08/24 11:02:25;;;;;;;13.3;12;;;;;;;23.94;67.46289;964.5609;;;;
2019/08/24 11:04:50;;;;;;;13.7;12.4;;;;;;;23.8;67.14648;964.5467;;;;
2019/08/24 11:07:15;;;;;;;13.3;11.9;;;;;;;23.66;68.60742;964.5648;;;;
2019/08/24 11:09:40;;;;;;;13.5;12.1;;;;;;;23.79;68.49707;964.5389;;;;
2019/08/24 11:12:05;;;;;;;15.4;13.8;;;;;;;23.75;69.17969;964.509;;;;
2019/08/24 11:14:31;;;;;;;13.7;12.3;;;;;;;23.8;67.77539;964.551;;;;
2019/08/24 11:16:56;;;;;;;12.3;11;;;;;;;24.28;66.41016;964.4637;;;;
2019/08/24 11:19:21;;;;;;;12.4;11.1;;;;;;;24.3;66.62793;964.4355;;;;
2019/08/24 11:21:46;;;;;;;14.6;13;;;;;;;24.09;66.00293;964.4653;;;;
2019/08/24 11:24:11;;;;;;;11.7;10.5;;;;;;;24.03;66.42188;964.4277;;;;
2019/08/24 11:26:36;;;;;;;12;10;;;;;;;24.28;65.21289;964.4492;;;;
2019/08/24 11:29:02;;;;;;;13.9;11.1;;;;;;;24.1;66.14648;964.4258;;;;
2019/08/24 11:31:27;;;;;;;12.2;10.9;;;;;;;24.04;66.23242;964.3783;;;;
2019/08/24 11:33:52;;;;;;;11.8;10.6;;;;;;;24.08;66.16797;964.3947;;;;
2019/08/24 11:36:17;;;;;;;12.1;10.9;;;;;;;24.03;66.29102;964.397;;;;
2019/08/24 11:38:42;;;;;;;11.4;10.3;;;;;;;24.14;66.88867;964.3998;;;;
2019/08/24 11:41:07;;;;;;;11.8;10.3;;;;;;;24.18;65.84961;964.3474;;;;
2019/08/24 11:43:32;;;;;;;11.4;10.2;;;;;;;24.12;65.35547;964.3803;;;;
2019/08/24 11:45:57;;;;;;;13.3;11.4;;;;;;;24.29;65.07129;964.3707;;;;
2019/08/24 11:48:22;;;;;;;11.4;10.3;;;;;;;24.32;64.95703;964.3833;;;;
2019/08/24 11:50:47;;;;;;;10.9;9.8;;;;;;;24.14;65.74805;964.3639;;;;
2019/08/24 11:53:12;;;;;;;12.4;10.8;;;;;;;24.24;65.64551;964.3973;;;;
2019/08/24 11:55:37;;;;;;;12.5;11.2;;;;;;;24.29;64.7627;964.3801;;;;
2019/08/24 11:58:02;;;;;;;14.4;11.6;;;;;;;24.28;64.28516;964.3728;;;;
2019/08/24 12:00:28;;;;;;;11.3;10.1;;;;;;;24.21;65.45117;964.3496;;;;
2019/08/24 12:02:53;;;;;;;10.9;9.8;;;;;;;24.42;66.02832;964.3491;;;;
2019/08/24 12:05:18;;;;;;;15.7;14;;;;;;;24.4;65.25293;964.3184;;;;
2019/08/24 12:07:43;;;;;;;14;12.6;;;;;;;24.62;65.78516;964.3494;;;;
2019/08/24 12:10:08;;;;;;;12.3;11.1;;;;;;;24.76;63.73633;964.2888;;;;
2019/08/24 12:12:33;;;;;;;11.2;10;;;;;;;24.72;63.5166;964.2274;;;;
2019/08/24 12:14:58;;;;;;;13.2;10.3;;;;;;;24.85;62.17969;964.1791;;;;
2019/08/24 12:17:23;;;;;;;10.7;9.7;;;;;;;24.73;64.39844;964.2018;;;;
2019/08/24 12:19:48;;;;;;;11.1;10.1;;;;;;;24.89;63.26855;964.2473;;;;
2019/08/24 12:22:13;;;;;;;11.3;10.1;;;;;;;24.92;63.62891;964.2197;;;;
2019/08/24 12:24:39;;;;;;;11.7;10.6;;;;;;;24.83;63.10449;964.1474;;;;
2019/08/24 12:27:04;;;;;;;11.8;10.5;;;;;;;24.89;62.60254;964.1412;;;;
2019/08/24 12:29:29;;;;;;;10.9;9.9;;;;;;;24.64;64.4209;964.0984;;;;
2019/08/24 12:31:54;;;;;;;12.8;10.2;;;;;;;24.66;63.86523;964.1158;;;;
2019/08/24 12:34:19;;;;;;;11.4;10.2;;;;;;;24.92;63.81934;964.1337;;;;
2019/08/24 12:36:44;;;;;;;13.3;10.9;;;;;;;25.31;63.26758;964.0955;;;;
2019/08/24 12:39:09;;;;;;;11.7;10.1;;;;;;;25.16;62.8291;964.1258;;;;
2019/08/24 12:41:34;;;;;;;12.5;11.3;;;;;;;24.93;64.47461;964.1228;;;;
2019/08/24 12:44:00;;;;;;;11.6;10.5;;;;;;;25.05;64.07617;964.1221;;;;
2019/08/24 12:46:25;;;;;;;14.4;12.9;;;;;;;25.15;64.78027;964.1144;;;;
2019/08/24 12:48:50;;;;;;;11.9;10.7;;;;;;;25.57;61.81543;964.0945;;;;
2019/08/24 12:51:15;;;;;;;12;10.4;;;;;;;25.81;61.47949;964.0822;;;;
2019/08/24 12:53:40;;;;;;;12.3;10.7;;;;;;;25.73;61.26563;964.0734;;;;
2019/08/24 12:56:05;;;;;;;13.5;12.1;;;;;;;25.72;61.14551;964.0251;;;;
